Time;durP1;ratioP1;P1;durP2;ratioP2;P2;SDS_P1;SDS_P2;PMS_P1;PMS_P2;Temp;Humidity;BMP_temperature;BMP_pressure;BME280_temperature;BME280_humidity;BME280_pressure;Samples;Min_cycle;Max_cycle;Signal;HPM_P1;HPM_P2
2023/01/22 00:04:15;;;;;;;11.68;6.18;;;;;;;;;;10464487;28;20307;-82
2023/01/22 00:09:21;;;;;;;10.13;5.90;;;;;;;;;;10446901;28;20079;-81
2023/01/22 00:14:24;;;;;;;7.37;4.67;;;;;;;;;;10473846;28;20477;-86
2023/01/22 00:19:29;;;;;;;14.52;7.22;;;;;;;;;;10490643;28;20041;-86
2023/01/22 00:24:32;;;;;;;15.00;7.47;;;;;;;;;;10467688;28;20053;-81
2023/01/22 00:29:36;;;;;;;8.27;5.38;;;;;;;;;;10469512;28;20053;-81
2023/01/22 00:34:43;;;;;;;7.38;4.57;;;;;;;;;;10452456;28;20063;-85
2023/01/22 00:39:48;;;;;;;8.23;4.28;;;;;;;;;;10460675;28;20083;-81
2023/01/22 00:44:53;;;;;;;8.00;4.28;;;;;;;;;;10474785;28;20136;-81
2023/01/22 00:49:58;;;;;;;8.07;5.15;;;;;;;;;;10477889;28;20044;-84
2023/01/22 00:55:02;;;;;;;8.27;4.00;;;;;;;;;;10456795;28;20044;-81
2023/01/22 01:00:09;;;;;;;6.75;4.22;;;;;;;;;;10468776;28;20040;-86
2023/01/22 01:05:17;;;;;;;8.77;4.30;;;;;;;;;;10454617;28;20524;-83
2023/01/22 01:10:20;;;;;;;7.68;4.40;;;;;;;;;;10459136;28;20033;-85
2023/01/22 01:15:24;;;;;;;7.40;4.30;;;;;;;;;;10455424;28;20059;-81
2023/01/22 01:20:29;;;;;;;7.05;4.20;;;;;;;;;;10452408;28;20040;-81
2023/01/22 01:25:32;;;;;;;6.72;3.83;;;;;;;;;;10449609;28;20511;-81
2023/01/22 01:30:36;;;;;;;7.05;3.90;;;;;;;;;;10458198;28;20040;-83
2023/01/22 01:35:41;;;;;;;8.82;5.25;;;;;;;;;;10457718;28;20696;-84
2023/01/22 01:40:45;;;;;;;9.70;5.85;;;;;;;;;;10484767;28;20056;-85
2023/01/22 01:45:49;;;;;;;7.00;4.13;;;;;;;;;;10460806;28;20503;-84
2023/01/22 01:50:59;;;;;;;6.15;3.63;;;;;;;;;;10469853;28;20051;-81
2023/01/22 01:56:05;;;;;;;8.13;3.85;;;;;;;;;;10444233;28;20076;-81
2023/01/22 02:01:11;;;;;;;10.48;3.95;;;;;;;;;;10465744;28;20032;-81
2023/01/22 02:06:17;;;;;;;;;;;;;;;;;;10447701;28;20077;-81
2023/01/22 02:11:22;;;;;;;5.93;3.90;;;;;;;;;;10480488;28;19924;-84
2023/01/22 02:16:26;;;;;;;6.75;3.58;;;;;;;;;;10459339;28;20052;-81
2023/01/22 02:21:35;;;;;;;5.97;3.53;;;;;;;;;;10465928;28;20526;-82
2023/01/22 02:26:40;;;;;;;5.82;3.42;;;;;;;;;;10458959;28;20041;-81
2023/01/22 02:31:44;;;;;;;5.50;3.42;;;;;;;;;;10488527;28;20294;-82
2023/01/22 02:36:50;;;;;;;6.28;3.80;;;;;;;;;;10489083;28;20105;-84
2023/01/22 02:41:54;;;;;;;6.00;3.60;;;;;;;;;;10475623;28;20048;-82
2023/01/22 02:46:58;;;;;;;6.03;3.38;;;;;;;;;;10477335;28;20707;-82
2023/01/22 02:52:04;;;;;;;6.05;3.72;;;;;;;;;;10454638;28;20044;-81
2023/01/22 02:57:09;;;;;;;4.38;3.15;;;;;;;;;;10503282;28;20706;-87
2023/01/22 03:02:13;;;;;;;5.72;3.38;;;;;;;;;;10473744;28;20093;-82
2023/01/22 03:07:19;;;;;;;5.38;3.17;;;;;;;;;;10460716;28;20043;-86
2023/01/22 03:12:23;;;;;;;6.18;3.38;;;;;;;;;;10461996;28;20094;-82
2023/01/22 03:22:50;;;;;;;5.85;3.58;;;;;;;;;;10479224;28;20043;-87
2023/01/22 03:33:16;;;;;;;4.43;2.97;;;;;;;;;;10493434;28;20063;-85
2023/01/22 03:38:25;;;;;;;5.10;2.90;;;;;;;;;;10490428;28;20667;-85
2023/01/22 03:43:30;;;;;;;5.47;3.42;;;;;;;;;;10495319;28;20042;-87
2023/01/22 03:48:34;;;;;;;6.28;3.58;;;;;;;;;;10503545;28;20252;-82
2023/01/22 03:53:39;;;;;;;4.93;3.03;;;;;;;;;;10484722;28;20105;-82
2023/01/22 03:58:44;;;;;;;3.63;2.90;;;;;;;;;;10507637;28;20411;-85
2023/01/22 04:03:50;;;;;;;5.35;3.63;;;;;;;;;;10489484;28;20289;-89
2023/01/22 04:08:56;;;;;;;5.15;2.97;;;;;;;;;;10512669;28;20047;-85
2023/01/22 04:14:07;;;;;;;5.13;3.33;;;;;;;;;;10511601;28;20044;-87
2023/01/22 04:19:13;;;;;;;5.35;3.05;;;;;;;;;;10497159;28;20036;-86
2023/01/22 04:24:29;;;;;;;4.78;3.20;;;;;;;;;;10516825;28;20115;-82
2023/01/22 04:29:34;;;;;;;4.00;2.85;;;;;;;;;;10495060;28;20259;-82
2023/01/22 04:34:41;;;;;;;4.88;2.95;;;;;;;;;;10505025;28;20107;-82
2023/01/22 04:39:56;;;;;;;3.53;2.53;;;;;;;;;;10513041;28;20048;-82
2023/01/22 04:45:00;;;;;;;3.33;2.60;;;;;;;;;;10493422;28;20047;-82
2023/01/22 04:50:05;;;;;;;;;;;;;;;;;;10493369;28;20073;-88
2023/01/22 04:55:11;;;;;;;4.05;2.80;;;;;;;;;;10507490;28;19920;-81
2023/01/22 05:00:26;;;;;;;3.55;2.40;;;;;;;;;;10506778;28;20867;-82
2023/01/22 05:05:30;;;;;;;3.60;2.60;;;;;;;;;;10507547;28;20085;-82
2023/01/22 05:10:36;;;;;;;3.05;2.40;;;;;;;;;;10489272;28;20040;-87
2023/01/22 05:15:42;;;;;;;2.83;2.08;;;;;;;;;;10503443;28;20044;-87
2023/01/22 05:20:48;;;;;;;3.40;2.55;;;;;;;;;;10511194;28;20086;-85
2023/01/22 05:25:54;;;;;;;3.58;2.65;;;;;;;;;;10495522;28;20040;-89
2023/01/22 05:31:11;;;;;;;3.38;2.63;;;;;;;;;;10510372;28;20048;-84
2023/01/22 05:36:23;;;;;;;3.60;2.55;;;;;;;;;;10493809;28;20043;-82
2023/01/22 05:41:30;;;;;;;;;;;;;;;;;;10495337;28;20051;-82
2023/01/22 05:46:34;;;;;;;3.20;2.47;;;;;;;;;;10488268;28;20519;-82
2023/01/22 05:51:49;;;;;;;2.83;2.03;;;;;;;;;;10492321;28;20047;-85
2023/01/22 05:56:54;;;;;;;2.88;1.95;;;;;;;;;;10506418;28;20048;-85
2023/01/22 06:01:59;;;;;;;;;;;;;;;;;;10494401;28;20097;-85
2023/01/22 06:07:03;;;;;;;4.40;2.75;;;;;;;;;;10511160;28;20007;-87
2023/01/22 06:12:08;;;;;;;5.68;3.78;;;;;;;;;;10510075;28;20551;-84
2023/01/22 06:17:12;;;;;;;5.13;3.13;;;;;;;;;;10493285;28;20044;-84
2023/01/22 06:22:22;;;;;;;3.97;3.28;;;;;;;;;;10508998;28;20052;-88
2023/01/22 06:27:31;;;;;;;3.65;2.70;;;;;;;;;;10509528;28;20048;-86
2023/01/22 06:32:36;;;;;;;3.75;2.78;;;;;;;;;;10508986;28;20472;-86
2023/01/22 06:37:39;;;;;;;3.92;2.90;;;;;;;;;;10502349;28;20044;-85
2023/01/22 06:42:44;;;;;;;3.22;2.53;;;;;;;;;;10492818;28;20040;-84
2023/01/22 06:47:48;;;;;;;2.97;2.08;;;;;;;;;;10513997;28;20210;-86
2023/01/22 06:52:56;;;;;;;2.88;2.08;;;;;;;;;;10517308;28;20131;-90
2023/01/22 06:58:00;;;;;;;2.10;1.90;;;;;;;;;;10498460;28;20097;-87
2023/01/22 07:03:07;;;;;;;3.30;2.10;;;;;;;;;;10500150;28;20416;-86
2023/01/22 07:08:14;;;;;;;3.05;2.45;;;;;;;;;;10500489;28;20501;-85
2023/01/22 07:13:19;;;;;;;2.47;2.28;;;;;;;;;;10519172;28;20036;-86
2023/01/22 07:18:23;;;;;;;4.05;2.65;;;;;;;;;;10520006;28;20063;-89
2023/01/22 07:23:27;;;;;;;2.85;2.35;;;;;;;;;;10501822;28;20042;-82
2023/01/22 07:28:32;;;;;;;3.08;2.60;;;;;;;;;;10504873;28;20063;-82
2023/01/22 07:33:35;;;;;;;3.80;2.63;;;;;;;;;;10520013;28;20123;-86
2023/01/22 07:38:39;;;;;;;3.17;2.47;;;;;;;;;;10491080;28;20097;-86
2023/01/22 07:43:48;;;;;;;3.10;2.40;;;;;;;;;;10514587;28;20115;-90
2023/01/22 07:48:51;;;;;;;2.47;2.08;;;;;;;;;;10506844;28;20064;-89
2023/01/22 07:53:55;;;;;;;2.88;2.15;;;;;;;;;;10516633;28;20054;-85
2023/01/22 07:59:01;;;;;;;2.70;2.20;;;;;;;;;;10516176;28;20090;-86
2023/01/22 08:04:12;;;;;;;3.47;2.60;;;;;;;;;;10513527;28;20506;-84
2023/01/22 08:09:23;;;;;;;2.75;2.45;;;;;;;;;;10512875;28;20447;-86
2023/01/22 08:14:28;;;;;;;3.13;2.40;;;;;;;;;;10522296;28;20036;-81
2023/01/22 08:19:32;;;;;;;4.07;2.83;;;;;;;;;;10516080;28;20119;-81
2023/01/22 08:24:35;;;;;;;3.17;2.67;;;;;;;;;;10502764;28;20047;-84
2023/01/22 08:30:20;;;;;;;4.07;2.65;;;;;;;;;;10512382;28;20060;-81
2023/01/22 08:35:24;;;;;;;3.10;2.40;;;;;;;;;;10471888;28;20135;-81
2023/01/22 08:40:27;;;;;;;3.40;2.90;;;;;;;;;;10496869;28;20051;-81
2023/01/22 08:45:33;;;;;;;3.08;2.25;;;;;;;;;;10496267;28;20130;-80
2023/01/22 08:50:36;;;;;;;3.50;2.72;;;;;;;;;;10504248;28;20563;-84
2023/01/22 08:55:40;;;;;;;4.13;2.95;;;;;;;;;;10495141;28;20044;-84
2023/01/22 09:00:45;;;;;;;3.47;2.80;;;;;;;;;;10509928;28;20147;-85
2023/01/22 09:05:49;;;;;;;3.50;2.60;;;;;;;;;;10492501;28;20039;-87
2023/01/22 09:10:53;;;;;;;2.33;2.13;;;;;;;;;;10503354;28;20056;-83
2023/01/22 09:15:58;;;;;;;4.65;3.20;;;;;;;;;;10509027;28;20063;-84
2023/01/22 09:21:03;;;;;;;5.63;3.90;;;;;;;;;;10686863;22;20049;-85
2023/01/22 09:26:06;;;;;;;11.23;7.05;;;;;;;;;;10459181;28;20056;-83
2023/01/22 09:31:13;;;;;;;10.43;6.78;;;;;;;;;;10468412;28;20040;-84
2023/01/22 09:36:18;;;;;;;10.05;5.70;;;;;;;;;;10461949;28;20119;-89
2023/01/22 09:41:27;;;;;;;13.20;8.55;;;;;;;;;;10457030;28;20137;-82
2023/01/22 09:46:37;;;;;;;9.40;6.90;;;;;;;;;;10476298;28;20055;-82
2023/01/22 09:51:40;;;;;;;9.27;6.95;;;;;;;;;;10466371;28;20049;-84
2023/01/22 09:56:46;;;;;;;5.47;4.20;;;;;;;;;;10467076;28;20049;-84
2023/01/22 10:01:56;;;;;;;3.00;2.70;;;;;;;;;;10446151;28;20076;-84
2023/01/22 10:07:03;;;;;;;3.60;3.00;;;;;;;;;;10441439;28;20153;-85
2023/01/22 10:12:13;;;;;;;3.58;2.90;;;;;;;;;;10459723;28;20056;-88
2023/01/22 10:17:21;;;;;;;2.58;2.25;;;;;;;;;;10461434;28;20056;-88
2023/01/22 10:22:26;;;;;;;2.10;1.90;;;;;;;;;;10451430;28;20155;-87
2023/01/22 10:27:38;;;;;;;2.20;1.98;;;;;;;;;;10457141;28;20051;-85
2023/01/22 10:32:43;;;;;;;2.22;2.03;;;;;;;;;;10476802;28;20050;-83
2023/01/22 10:37:48;;;;;;;3.75;2.30;;;;;;;;;;10454441;28;20197;-85
2023/01/22 10:43:05;;;;;;;3.00;2.70;;;;;;;;;;10469860;28;20060;-87
2023/01/22 10:48:17;;;;;;;2.83;2.53;;;;;;;;;;10472863;28;20838;-88
2023/01/22 10:53:25;;;;;;;2.35;2.15;;;;;;;;;;10448336;28;20036;-88
2023/01/22 10:58:32;;;;;;;2.72;2.40;;;;;;;;;;10456119;28;20044;-88
2023/01/22 11:03:39;;;;;;;2.05;1.80;;;;;;;;;;10441724;28;20052;-89
2023/01/22 11:08:48;;;;;;;2.15;1.95;;;;;;;;;;10464480;28;20148;-88
2023/01/22 11:13:58;;;;;;;2.35;2.10;;;;;;;;;;10470165;28;20048;-88
2023/01/22 11:19:06;;;;;;;2.28;2.08;;;;;;;;;;10452671;28;20596;-88
2023/01/22 11:24:14;;;;;;;2.25;2.05;;;;;;;;;;10472375;28;20274;-88
2023/01/22 11:29:32;;;;;;;3.00;2.75;;;;;;;;;;10454150;28;20037;-88
2023/01/22 11:34:55;;;;;;;4.00;2.58;;;;;;;;;;10450997;28;20045;-89
2023/01/22 11:40:18;;;;;;;2.70;2.50;;;;;;;;;;10483384;28;20044;-87
2023/01/22 11:45:51;;;;;;;3.35;2.28;;;;;;;;;;10446507;28;20043;-88
2023/01/22 11:51:03;;;;;;;2.22;2.03;;;;;;;;;;10466517;28;20052;-88
2023/01/22 11:56:21;;;;;;;2.13;1.95;;;;;;;;;;10448392;28;20603;-87
2023/01/22 12:01:34;;;;;;;2.28;1.70;;;;;;;;;;10459478;28;20044;-86
2023/01/22 12:07:10;;;;;;;2.35;2.00;;;;;;;;;;10466246;28;20155;-87
2023/01/22 12:12:29;;;;;;;2.67;2.35;;;;;;;;;;10453819;28;20056;-89
2023/01/22 12:17:43;;;;;;;2.75;1.88;;;;;;;;;;10455767;28;20483;-90
2023/01/22 12:22:53;;;;;;;2.40;2.20;;;;;;;;;;10453408;28;20044;-90
2023/01/22 12:28:02;;;;;;;2.90;2.47;;;;;;;;;;10477513;28;20044;-89
2023/01/22 12:33:27;;;;;;;2.10;1.88;;;;;;;;;;10467960;28;20116;-89
2023/01/22 12:38:42;;;;;;;2.20;2.00;;;;;;;;;;10483957;28;20127;-86
2023/01/22 12:43:51;;;;;;;2.13;1.92;;;;;;;;;;10448854;28;20044;-85
2023/01/22 12:49:03;;;;;;;2.03;1.85;;;;;;;;;;10465539;28;20047;-86
2023/01/22 12:54:21;;;;;;;2.30;2.10;;;;;;;;;;10455487;28;20461;-86
2023/01/22 12:59:32;;;;;;;1.80;1.70;;;;;;;;;;10467639;28;20131;-85
2023/01/22 13:04:36;;;;;;;2.28;1.75;;;;;;;;;;10448758;28;20051;-88
2023/01/22 13:09:41;;;;;;;2.50;2.20;;;;;;;;;;10463824;28;20048;-87
2023/01/22 13:14:46;;;;;;;2.67;2.13;;;;;;;;;;10455656;28;20661;-87
2023/01/22 13:19:51;;;;;;;2.45;2.13;;;;;;;;;;10459259;28;20062;-86
2023/01/22 13:24:57;;;;;;;5.03;2.88;;;;;;;;;;10446472;28;20048;-86
2023/01/22 13:30:09;;;;;;;3.75;2.72;;;;;;;;;;10449491;28;20044;-83
2023/01/22 13:35:14;;;;;;;2.28;2.08;;;;;;;;;;10465976;28;20033;-86
2023/01/22 13:40:27;;;;;;;1.73;1.63;;;;;;;;;;10461780;28;20045;-86
2023/01/22 13:45:34;;;;;;;1.77;1.60;;;;;;;;;;10453853;28;20055;-88
2023/01/22 13:50:40;;;;;;;2.28;1.50;;;;;;;;;;10475884;28;20128;-86
2023/01/22 13:55:45;;;;;;;1.42;1.33;;;;;;;;;;10478099;28;20052;-87
2023/01/22 14:00:53;;;;;;;3.10;2.22;;;;;;;;;;10475889;28;20041;-84
2023/01/22 14:06:08;;;;;;;2.80;1.73;;;;;;;;;;10457245;28;20328;-85
2023/01/22 14:11:13;;;;;;;1.88;1.73;;;;;;;;;;10464883;28;20694;-86
2023/01/22 14:16:17;;;;;;;2.08;1.70;;;;;;;;;;10456610;28;20087;-86
2023/01/22 14:21:20;;;;;;;1.85;1.63;;;;;;;;;;10482966;28;20560;-87
2023/01/22 14:26:25;;;;;;;1.55;1.45;;;;;;;;;;10453591;28;20050;-86
2023/01/22 14:31:29;;;;;;;1.92;1.67;;;;;;;;;;10467052;28;20384;-85
2023/01/22 14:36:32;;;;;;;1.67;1.58;;;;;;;;;;10454834;28;20048;-88
2023/01/22 14:41:37;;;;;;;1.60;1.50;;;;;;;;;;10477038;28;20055;-88
2023/01/22 14:46:41;;;;;;;1.83;1.73;;;;;;;;;;10456006;28;20048;-88
2023/01/22 14:51:45;;;;;;;2.15;1.58;;;;;;;;;;10462397;28;20464;-87
2023/01/22 14:56:49;;;;;;;3.50;2.38;;;;;;;;;;10460610;28;20459;-87
2023/01/22 15:01:53;;;;;;;5.80;3.50;;;;;;;;;;10468322;28;20511;-85
2023/01/22 15:06:57;;;;;;;4.63;3.47;;;;;;;;;;10461354;28;20059;-87
2023/01/22 15:12:02;;;;;;;4.57;3.20;;;;;;;;;;10469874;28;20139;-86
2023/01/22 15:17:05;;;;;;;5.60;3.60;;;;;;;;;;10456841;28;20155;-87
2023/01/22 15:22:09;;;;;;;2.70;2.40;;;;;;;;;;10475636;28;20127;-88
2023/01/22 15:27:17;;;;;;;3.50;2.72;;;;;;;;;;10464281;28;20044;-89
2023/01/22 15:32:21;;;;;;;3.28;2.65;;;;;;;;;;10458612;28;20048;-88
2023/01/22 15:37:24;;;;;;;2.70;2.20;;;;;;;;;;10473147;28;20414;-85
2023/01/22 15:42:29;;;;;;;4.25;2.97;;;;;;;;;;10472887;28;20112;-84
2023/01/22 15:47:33;;;;;;;2.88;2.22;;;;;;;;;;10450604;28;20419;-86
2023/01/22 15:52:37;;;;;;;3.38;2.20;;;;;;;;;;10466153;28;20499;-85
2023/01/22 15:57:42;;;;;;;2.38;2.05;;;;;;;;;;10461634;28;20089;-86
2023/01/22 16:02:45;;;;;;;2.22;1.95;;;;;;;;;;10470493;28;20452;-86
2023/01/22 16:07:49;;;;;;;2.40;2.05;;;;;;;;;;10457167;28;20044;-85
2023/01/22 16:12:56;;;;;;;1.83;1.50;;;;;;;;;;10445219;28;20049;-85
2023/01/22 16:18:00;;;;;;;1.95;1.75;;;;;;;;;;10428568;28;20045;-87
2023/01/22 16:23:04;;;;;;;1.65;1.50;;;;;;;;;;10447400;28;20033;-85
2023/01/22 16:28:11;;;;;;;1.95;1.67;;;;;;;;;;10433402;28;20063;-85
2023/01/22 16:33:18;;;;;;;;;;;;;;;;;;10435864;28;20044;-85
2023/01/22 16:38:22;;;;;;;2.67;1.90;;;;;;;;;;10438181;28;19982;-85
2023/01/22 16:43:27;;;;;;;2.75;2.05;;;;;;;;;;10436313;28;20063;-86
2023/01/22 16:48:30;;;;;;;2.60;1.98;;;;;;;;;;10440786;28;20068;-85
2023/01/22 16:53:34;;;;;;;3.42;2.35;;;;;;;;;;10449042;28;20194;-85
2023/01/22 16:58:40;;;;;;;3.55;2.60;;;;;;;;;;10462436;28;20076;-84
2023/01/22 17:03:43;;;;;;;4.17;3.13;;;;;;;;;;10454017;28;20049;-85
2023/01/22 17:08:47;;;;;;;4.45;2.53;;;;;;;;;;10455187;28;20055;-85
2023/01/22 17:13:52;;;;;;;4.60;2.60;;;;;;;;;;10445226;28;20052;-83
2023/01/22 17:18:59;;;;;;;4.15;2.78;;;;;;;;;;10456833;28;20036;-86
2023/01/22 17:24:03;;;;;;;;;;;;;;;;;;10443004;28;20044;-87
2023/01/22 17:29:09;;;;;;;10.20;5.43;;;;;;;;;;10445788;28;19929;-88
2023/01/22 17:34:12;;;;;;;13.10;7.87;;;;;;;;;;10441804;28;20546;-88
2023/01/22 17:39:17;;;;;;;14.30;7.00;;;;;;;;;;10459217;28;20044;-88
2023/01/22 17:44:25;;;;;;;9.17;5.53;;;;;;;;;;10462236;28;20055;-86
2023/01/22 17:49:29;;;;;;;7.60;5.50;;;;;;;;;;10445650;28;20120;-88
2023/01/22 17:54:32;;;;;;;7.65;4.50;;;;;;;;;;10444375;28;20037;-88
2023/01/22 17:59:37;;;;;;;3.83;2.90;;;;;;;;;;10454923;28;20055;-86
2023/01/22 18:04:41;;;;;;;3.00;2.47;;;;;;;;;;10445358;28;20055;-85
2023/01/22 18:09:44;;;;;;;3.53;2.35;;;;;;;;;;10455225;28;20106;-86
2023/01/22 18:14:49;;;;;;;2.55;2.13;;;;;;;;;;10452219;28;20048;-85
2023/01/22 18:19:53;;;;;;;3.05;2.38;;;;;;;;;;10472144;28;20443;-85
2023/01/22 18:24:57;;;;;;;3.03;2.13;;;;;;;;;;10468486;28;20132;-85
2023/01/22 18:30:03;;;;;;;3.17;2.88;;;;;;;;;;10456331;28;20079;-85
2023/01/22 18:35:08;;;;;;;4.50;3.10;;;;;;;;;;10445991;28;20047;-84
2023/01/22 18:40:12;;;;;;;2.92;2.53;;;;;;;;;;10448253;28;20078;-85
2023/01/22 18:45:17;;;;;;;5.05;3.63;;;;;;;;;;10453990;28;20136;-84
2023/01/22 18:50:22;;;;;;;4.95;3.22;;;;;;;;;;10466217;28;20053;-83
2023/01/22 18:55:25;;;;;;;4.72;3.22;;;;;;;;;;10452284;28;20048;-84
2023/01/22 19:00:30;;;;;;;5.00;3.20;;;;;;;;;;10481052;28;20089;-85
2023/01/22 19:05:34;;;;;;;5.00;3.40;;;;;;;;;;10489863;28;20102;-86
2023/01/22 19:10:37;;;;;;;4.78;3.15;;;;;;;;;;10470418;28;20079;-88
2023/01/22 19:15:42;;;;;;;5.15;3.63;;;;;;;;;;10482557;28;20040;-88
2023/01/22 19:26:44;;;;;;;4.30;3.40;;;;;;;;;;2434200;22;20063;-86
2023/01/22 19:31:51;;;;;;;4.03;2.53;;;;;;;;;;10470418;28;20072;-87
2023/01/22 19:36:57;;;;;;;3.72;3.10;;;;;;;;;;10472672;28;20080;-87
2023/01/22 19:42:03;;;;;;;5.57;3.20;;;;;;;;;;10473484;28;20065;-86
2023/01/22 19:47:10;;;;;;;3.72;2.83;;;;;;;;;;10482384;28;20110;-86
2023/01/22 19:52:13;;;;;;;3.63;2.83;;;;;;;;;;10480900;28;20071;-86
2023/01/22 19:57:18;;;;;;;3.03;2.50;;;;;;;;;;10476162;28;20052;-87
2023/01/22 20:02:24;;;;;;;5.00;2.80;;;;;;;;;;10484369;28;20036;-87
2023/01/22 20:07:28;;;;;;;3.58;2.78;;;;;;;;;;10487083;28;20078;-86
2023/01/22 20:12:32;;;;;;;3.65;2.80;;;;;;;;;;10479354;28;20051;-86
2023/01/22 20:17:38;;;;;;;3.63;2.70;;;;;;;;;;10495177;28;20049;-86
2023/01/22 20:22:42;;;;;;;2.85;2.22;;;;;;;;;;10496621;28;20071;-87
2023/01/22 20:27:46;;;;;;;2.83;2.40;;;;;;;;;;10488099;28;20052;-87
2023/01/22 20:32:51;;;;;;;3.72;2.60;;;;;;;;;;10482406;28;20047;-87
2023/01/22 20:37:55;;;;;;;4.67;3.13;;;;;;;;;;10486432;28;20110;-87
2023/01/22 20:42:58;;;;;;;3.20;2.63;;;;;;;;;;10492393;28;20056;-86
2023/01/22 20:48:04;;;;;;;2.97;2.42;;;;;;;;;;10459628;28;20044;-86
2023/01/22 20:53:09;;;;;;;3.40;2.67;;;;;;;;;;10447532;28;20135;-87
2023/01/22 20:58:14;;;;;;;;;;;;;;;;;;10451438;28;20049;-85
2023/01/22 21:03:19;;;;;;;3.30;2.80;;;;;;;;;;10440729;28;20433;-85
2023/01/22 21:08:22;;;;;;;4.75;3.47;;;;;;;;;;10434366;28;20082;-86
2023/01/22 21:13:27;;;;;;;4.07;3.10;;;;;;;;;;10442212;28;20763;-85
2023/01/22 21:18:31;;;;;;;3.75;2.83;;;;;;;;;;10437541;28;20473;-86
2023/01/22 21:23:35;;;;;;;3.05;2.58;;;;;;;;;;10450392;28;20099;-86
2023/01/22 21:28:39;;;;;;;4.65;3.15;;;;;;;;;;10440287;28;20036;-86
2023/01/22 21:33:44;;;;;;;4.60;2.72;;;;;;;;;;10444599;28;20704;-86
2023/01/22 21:38:49;;;;;;;4.63;3.03;;;;;;;;;;10449009;28;20040;-87
2023/01/22 21:49:16;;;;;;;3.50;2.83;;;;;;;;;;10461105;28;20041;-88
2023/01/22 21:54:22;;;;;;;3.47;2.55;;;;;;;;;;10463584;28;20041;-89
2023/01/22 21:59:26;;;;;;;3.83;2.72;;;;;;;;;;10457571;28;20155;-88
2023/01/22 22:04:32;;;;;;;4.72;2.85;;;;;;;;;;10479735;28;20047;-88
2023/01/22 22:09:40;;;;;;;3.22;2.60;;;;;;;;;;10459634;28;20286;-89
2023/01/22 22:14:44;;;;;;;3.03;2.40;;;;;;;;;;10459959;28;20041;-88
2023/01/22 22:19:49;;;;;;;3.10;2.42;;;;;;;;;;10454289;28;20123;-87
2023/01/22 22:24:53;;;;;;;3.13;2.03;;;;;;;;;;10469023;28;20114;-87
2023/01/22 22:29:57;;;;;;;3.40;2.50;;;;;;;;;;10468558;28;20045;-87
2023/01/22 22:35:04;;;;;;;2.40;2.17;;;;;;;;;;10470179;28;20423;-87
2023/01/22 22:40:09;;;;;;;;;;;;;;;;;;10464158;28;20051;-86
2023/01/22 22:45:13;;;;;;;3.75;2.20;;;;;;;;;;10462419;28;20510;-87
2023/01/22 22:50:22;;;;;;;3.33;2.33;;;;;;;;;;10461777;28;20051;-87
2023/01/22 22:55:27;;;;;;;3.25;2.22;;;;;;;;;;10462504;28;20048;-88
2023/01/22 23:00:31;;;;;;;2.90;2.33;;;;;;;;;;10479299;28;20090;-88
2023/01/22 23:05:40;;;;;;;3.20;2.03;;;;;;;;;;10469413;28;20040;-89
2023/01/22 23:10:44;;;;;;;3.22;2.35;;;;;;;;;;10452523;28;20052;-87
2023/01/22 23:15:51;;;;;;;2.50;2.05;;;;;;;;;;10464819;28;20071;-87
2023/01/22 23:20:57;;;;;;;3.40;2.40;;;;;;;;;;10469629;28;20098;-89
2023/01/22 23:26:02;;;;;;;2.97;2.15;;;;;;;;;;10468506;28;20040;-89
2023/01/22 23:31:07;;;;;;;3.88;2.10;;;;;;;;;;10487488;28;20083;-89
2023/01/22 23:36:18;;;;;;;2.65;2.22;;;;;;;;;;10486652;28;20052;-88
2023/01/22 23:41:23;;;;;;;3.13;2.33;;;;;;;;;;10466198;28;20075;-88
2023/01/22 23:46:30;;;;;;;2.67;2.27;;;;;;;;;;10444165;28;20079;-88
2023/01/22 23:51:39;;;;;;;2.70;2.10;;;;;;;;;;10461814;28;20047;-88
2023/01/22 23:56:46;;;;;;;2.45;1.98;;;;;;;;;;10473720;28;20049;-89
